sensor_id;sensor_type;location;lat;lon;timestamp;temperature;humidity
37996;DHT22;23808;50.634;6.948;2022-07-29T00:01:21;20.20;81.20
37996;DHT22;23808;50.634;6.948;2022-07-29T00:05:22;20.20;81.20
37996;DHT22;23808;50.634;6.948;2022-07-29T00:09:22;20.20;80.90
37996;DHT22;23808;50.634;6.948;2022-07-29T00:13:23;20.20;81.70
37996;DHT22;23808;50.634;6.948;2022-07-29T00:17:24;20.10;81.80
37996;DHT22;23808;50.634;6.948;2022-07-29T00:21:24;20.20;81.50
37996;DHT22;23808;50.634;6.948;2022-07-29T00:25:25;20.20;81.50
37996;DHT22;23808;50.634;6.948;2022-07-29T00:29:26;20.10;82.90
37996;DHT22;23808;50.634;6.948;2022-07-29T00:33:26;20.10;83.50
37996;DHT22;23808;50.634;6.948;2022-07-29T00:37:27;19.90;84.80
37996;DHT22;23808;50.634;6.948;2022-07-29T00:41:27;19.90;84.90
37996;DHT22;23808;50.634;6.948;2022-07-29T00:45:28;19.80;85.90
37996;DHT22;23808;50.634;6.948;2022-07-29T00:49:30;19.70;86.10
37996;DHT22;23808;50.634;6.948;2022-07-29T00:53:31;19.60;86.80
37996;DHT22;23808;50.634;6.948;2022-07-29T00:57:33;19.50;86.70
37996;DHT22;23808;50.634;6.948;2022-07-29T01:01:33;19.40;87.30
37996;DHT22;23808;50.634;6.948;2022-07-29T01:05:35;19.40;87.30
37996;DHT22;23808;50.634;6.948;2022-07-29T01:09:37;19.40;88.20
37996;DHT22;23808;50.634;6.948;2022-07-29T01:13:38;19.30;88.60
37996;DHT22;23808;50.634;6.948;2022-07-29T01:18:16;19.30;88.50
37996;DHT22;23808;50.634;6.948;2022-07-29T01:31:51;19.10;88.80
37996;DHT22;23808;50.634;6.948;2022-07-29T01:35:48;19.10;89.50
37996;DHT22;23808;50.634;6.948;2022-07-29T01:39:52;19.00;90.20
37996;DHT22;23808;50.634;6.948;2022-07-29T01:43:58;18.90;90.20
37996;DHT22;23808;50.634;6.948;2022-07-29T01:48:03;18.80;90.10
37996;DHT22;23808;50.634;6.948;2022-07-29T01:52:13;18.80;90.40
37996;DHT22;23808;50.634;6.948;2022-07-29T01:56:18;18.60;90.70
37996;DHT22;23808;50.634;6.948;2022-07-29T02:00:20;18.50;91.50
37996;DHT22;23808;50.634;6.948;2022-07-29T02:04:23;18.50;92.00
37996;DHT22;23808;50.634;6.948;2022-07-29T02:08:25;18.30;92.60
37996;DHT22;23808;50.634;6.948;2022-07-29T02:12:28;18.20;93.20
37996;DHT22;23808;50.634;6.948;2022-07-29T02:16:31;18.10;93.90
37996;DHT22;23808;50.634;6.948;2022-07-29T02:20:33;18.00;94.50
37996;DHT22;23808;50.634;6.948;2022-07-29T02:24:35;17.80;95.00
37996;DHT22;23808;50.634;6.948;2022-07-29T02:28:39;17.80;95.60
37996;DHT22;23808;50.634;6.948;2022-07-29T02:32:41;17.70;96.20
37996;DHT22;23808;50.634;6.948;2022-07-29T02:36:44;17.60;96.50
37996;DHT22;23808;50.634;6.948;2022-07-29T02:40:45;17.60;96.50
37996;DHT22;23808;50.634;6.948;2022-07-29T02:44:47;17.60;96.30
37996;DHT22;23808;50.634;6.948;2022-07-29T02:53:44;17.70;96.20
37996;DHT22;23808;50.634;6.948;2022-07-29T03:02:20;17.70;95.50
37996;DHT22;23808;50.634;6.948;2022-07-29T03:06:24;17.80;95.30
37996;DHT22;23808;50.634;6.948;2022-07-29T03:10:26;17.80;95.50
37996;DHT22;23808;50.634;6.948;2022-07-29T03:14:28;17.90;95.50
37996;DHT22;23808;50.634;6.948;2022-07-29T03:18:29;17.90;95.70
37996;DHT22;23808;50.634;6.948;2022-07-29T03:22:31;17.90;95.80
37996;DHT22;23808;50.634;6.948;2022-07-29T03:26:31;17.90;95.90
37996;DHT22;23808;50.634;6.948;2022-07-29T03:30:32;17.80;95.70
37996;DHT22;23808;50.634;6.948;2022-07-29T03:34:33;17.80;95.70
37996;DHT22;23808;50.634;6.948;2022-07-29T03:38:35;17.80;95.30
37996;DHT22;23808;50.634;6.948;2022-07-29T03:42:38;17.80;95.30
37996;DHT22;23808;50.634;6.948;2022-07-29T03:46:41;17.80;95.40
37996;DHT22;23808;50.634;6.948;2022-07-29T03:50:43;17.70;95.40
37996;DHT22;23808;50.634;6.948;2022-07-29T03:54:44;17.70;95.30
37996;DHT22;23808;50.634;6.948;2022-07-29T03:58:45;17.70;95.30
37996;DHT22;23808;50.634;6.948;2022-07-29T04:02:46;17.70;95.30
37996;DHT22;23808;50.634;6.948;2022-07-29T04:06:48;17.70;95.20
37996;DHT22;23808;50.634;6.948;2022-07-29T04:10:49;17.70;95.20
37996;DHT22;23808;50.634;6.948;2022-07-29T04:14:50;17.70;95.30
37996;DHT22;23808;50.634;6.948;2022-07-29T04:18:50;17.80;95.20
37996;DHT22;23808;50.634;6.948;2022-07-29T04:22:51;17.80;95.30
37996;DHT22;23808;50.634;6.948;2022-07-29T04:26:52;17.80;95.30
37996;DHT22;23808;50.634;6.948;2022-07-29T04:30:53;17.90;95.20
37996;DHT22;23808;50.634;6.948;2022-07-29T04:34:53;17.90;95.20
37996;DHT22;23808;50.634;6.948;2022-07-29T04:38:54;18.00;95.10
37996;DHT22;23808;50.634;6.948;2022-07-29T04:42:55;18.10;95.00
37996;DHT22;23808;50.634;6.948;2022-07-29T04:46:56;18.10;95.00
37996;DHT22;23808;50.634;6.948;2022-07-29T04:50:57;18.30;94.80
37996;DHT22;23808;50.634;6.948;2022-07-29T04:54:58;18.30;94.70
37996;DHT22;23808;50.634;6.948;2022-07-29T04:58:58;18.40;94.70
37996;DHT22;23808;50.634;6.948;2022-07-29T05:02:59;18.50;94.90
37996;DHT22;23808;50.634;6.948;2022-07-29T05:07:00;18.60;94.40
37996;DHT22;23808;50.634;6.948;2022-07-29T05:11:00;18.70;94.50
37996;DHT22;23808;50.634;6.948;2022-07-29T05:15:01;18.70;94.10
37996;DHT22;23808;50.634;6.948;2022-07-29T05:19:02;18.80;94.20
37996;DHT22;23808;50.634;6.948;2022-07-29T05:23:03;18.80;94.10
37996;DHT22;23808;50.634;6.948;2022-07-29T05:27:04;18.90;93.80
37996;DHT22;23808;50.634;6.948;2022-07-29T05:31:04;19.00;93.50
37996;DHT22;23808;50.634;6.948;2022-07-29T05:35:06;19.00;93.50
37996;DHT22;23808;50.634;6.948;2022-07-29T05:39:06;19.10;93.50
37996;DHT22;23808;50.634;6.948;2022-07-29T05:43:13;19.10;93.40
37996;DHT22;23808;50.634;6.948;2022-07-29T05:47:14;19.20;93.30
37996;DHT22;23808;50.634;6.948;2022-07-29T05:51:15;19.30;92.90
37996;DHT22;23808;50.634;6.948;2022-07-29T05:55:15;19.50;92.80
37996;DHT22;23808;50.634;6.948;2022-07-29T05:59:16;19.60;92.50
37996;DHT22;23808;50.634;6.948;2022-07-29T06:03:16;19.80;92.10
37996;DHT22;23808;50.634;6.948;2022-07-29T06:07:17;19.90;91.50
37996;DHT22;23808;50.634;6.948;2022-07-29T06:11:18;20.00;91.30
37996;DHT22;23808;50.634;6.948;2022-07-29T06:15:18;20.10;91.10
37996;DHT22;23808;50.634;6.948;2022-07-29T06:19:19;20.10;91.00
37996;DHT22;23808;50.634;6.948;2022-07-29T06:23:20;20.20;90.80
37996;DHT22;23808;50.634;6.948;2022-07-29T06:27:21;20.40;90.60
37996;DHT22;23808;50.634;6.948;2022-07-29T06:31:21;20.50;90.40
37996;DHT22;23808;50.634;6.948;2022-07-29T06:35:22;20.70;90.50
37996;DHT22;23808;50.634;6.948;2022-07-29T06:39:23;20.70;90.30
37996;DHT22;23808;50.634;6.948;2022-07-29T06:43:23;20.80;90.10
37996;DHT22;23808;50.634;6.948;2022-07-29T06:47:24;20.80;90.90
37996;DHT22;23808;50.634;6.948;2022-07-29T06:51:24;20.70;90.50
37996;DHT22;23808;50.634;6.948;2022-07-29T06:55:25;20.80;91.40
37996;DHT22;23808;50.634;6.948;2022-07-29T06:59:26;20.70;91.90
37996;DHT22;23808;50.634;6.948;2022-07-29T07:03:26;20.80;91.70
37996;DHT22;23808;50.634;6.948;2022-07-29T07:07:27;21.00;91.20
37996;DHT22;23808;50.634;6.948;2022-07-29T07:11:28;21.20;90.70
37996;DHT22;23808;50.634;6.948;2022-07-29T07:15:29;21.40;91.10
37996;DHT22;23808;50.634;6.948;2022-07-29T07:19:29;21.40;90.70
37996;DHT22;23808;50.634;6.948;2022-07-29T07:23:30;21.50;90.40
37996;DHT22;23808;50.634;6.948;2022-07-29T07:27:31;21.60;90.00
37996;DHT22;23808;50.634;6.948;2022-07-29T07:31:31;21.70;89.10
37996;DHT22;23808;50.634;6.948;2022-07-29T07:35:32;21.80;89.90
37996;DHT22;23808;50.634;6.948;2022-07-29T07:39:33;22.10;89.40
37996;DHT22;23808;50.634;6.948;2022-07-29T07:43:33;22.10;89.10
37996;DHT22;23808;50.634;6.948;2022-07-29T07:47:34;22.10;88.60
37996;DHT22;23808;50.634;6.948;2022-07-29T07:51:35;22.10;88.30
37996;DHT22;23808;50.634;6.948;2022-07-29T07:55:42;22.10;87.70
37996;DHT22;23808;50.634;6.948;2022-07-29T07:59:43;22.10;88.20
37996;DHT22;23808;50.634;6.948;2022-07-29T08:03:44;22.20;87.80
37996;DHT22;23808;50.634;6.948;2022-07-29T08:07:46;22.40;86.90
37996;DHT22;23808;50.634;6.948;2022-07-29T08:11:46;22.50;86.60
37996;DHT22;23808;50.634;6.948;2022-07-29T08:15:47;22.70;87.40
37996;DHT22;23808;50.634;6.948;2022-07-29T08:19:57;23.00;86.50
37996;DHT22;23808;50.634;6.948;2022-07-29T08:23:58;23.40;85.30
37996;DHT22;23808;50.634;6.948;2022-07-29T08:28:17;23.70;83.60
37996;DHT22;23808;50.634;6.948;2022-07-29T08:32:18;24.20;82.00
37996;DHT22;23808;50.634;6.948;2022-07-29T08:36:18;24.50;81.30
37996;DHT22;23808;50.634;6.948;2022-07-29T08:40:21;24.80;80.00
37996;DHT22;23808;50.634;6.948;2022-07-29T08:44:23;25.10;79.70
37996;DHT22;23808;50.634;6.948;2022-07-29T08:48:24;25.40;78.60
37996;DHT22;23808;50.634;6.948;2022-07-29T08:52:28;25.40;77.50
37996;DHT22;23808;50.634;6.948;2022-07-29T08:56:30;25.40;77.90
37996;DHT22;23808;50.634;6.948;2022-07-29T09:00:30;25.50;76.70
37996;DHT22;23808;50.634;6.948;2022-07-29T09:04:34;25.50;77.50
37996;DHT22;23808;50.634;6.948;2022-07-29T09:08:35;25.70;76.70
37996;DHT22;23808;50.634;6.948;2022-07-29T09:12:36;25.90;76.50
37996;DHT22;23808;50.634;6.948;2022-07-29T09:16:48;26.20;75.70
37996;DHT22;23808;50.634;6.948;2022-07-29T09:20:53;26.50;74.70
37996;DHT22;23808;50.634;6.948;2022-07-29T09:25:12;26.60;73.50
37996;DHT22;23808;50.634;6.948;2022-07-29T09:29:14;26.60;73.60
37996;DHT22;23808;50.634;6.948;2022-07-29T09:33:15;26.80;74.10
37996;DHT22;23808;50.634;6.948;2022-07-29T09:37:28;27.20;72.80
37996;DHT22;23808;50.634;6.948;2022-07-29T09:41:29;27.40;72.20
37996;DHT22;23808;50.634;6.948;2022-07-29T09:45:43;27.50;71.30
37996;DHT22;23808;50.634;6.948;2022-07-29T09:49:55;27.40;71.10
37996;DHT22;23808;50.634;6.948;2022-07-29T09:53:58;27.40;71.30
37996;DHT22;23808;50.634;6.948;2022-07-29T09:58:20;27.80;70.00
37996;DHT22;23808;50.634;6.948;2022-07-29T10:02:21;28.40;69.10
37996;DHT22;23808;50.634;6.948;2022-07-29T10:06:22;28.80;67.40
37996;DHT22;23808;50.634;6.948;2022-07-29T10:10:32;29.00;66.90
37996;DHT22;23808;50.634;6.948;2022-07-29T10:14:35;29.00;66.60
37996;DHT22;23808;50.634;6.948;2022-07-29T10:18:38;29.10;66.70
37996;DHT22;23808;50.634;6.948;2022-07-29T10:22:40;29.40;66.00
37996;DHT22;23808;50.634;6.948;2022-07-29T10:26:41;29.60;65.70
37996;DHT22;23808;50.634;6.948;2022-07-29T10:30:42;29.60;65.20
37996;DHT22;23808;50.634;6.948;2022-07-29T10:43:25;30.70;63.60
37996;DHT22;23808;50.634;6.948;2022-07-29T10:47:27;30.90;63.00
37996;DHT22;23808;50.634;6.948;2022-07-29T10:55:51;31.00;62.10
37996;DHT22;23808;50.634;6.948;2022-07-29T11:04:04;30.50;62.80
37996;DHT22;23808;50.634;6.948;2022-07-29T11:16:58;30.40;63.20
37996;DHT22;23808;50.634;6.948;2022-07-29T11:20:59;30.70;62.60
37996;DHT22;23808;50.634;6.948;2022-07-29T11:25:16;30.80;62.60
37996;DHT22;23808;50.634;6.948;2022-07-29T11:29:21;30.70;61.30
37996;DHT22;23808;50.634;6.948;2022-07-29T11:33:33;30.40;61.60
37996;DHT22;23808;50.634;6.948;2022-07-29T11:37:34;30.50;61.10
37996;DHT22;23808;50.634;6.948;2022-07-29T11:41:34;30.70;60.90
37996;DHT22;23808;50.634;6.948;2022-07-29T11:45:46;30.90;60.50
37996;DHT22;23808;50.634;6.948;2022-07-29T11:49:47;31.40;60.10
37996;DHT22;23808;50.634;6.948;2022-07-29T11:53:49;32.10;59.40
37996;DHT22;23808;50.634;6.948;2022-07-29T11:57:53;32.40;58.10
37996;DHT22;23808;50.634;6.948;2022-07-29T12:01:59;32.80;57.50
37996;DHT22;23808;50.634;6.948;2022-07-29T12:06:00;33.00;57.10
37996;DHT22;23808;50.634;6.948;2022-07-29T12:10:01;32.60;56.60
37996;DHT22;23808;50.634;6.948;2022-07-29T12:14:02;32.50;56.70
37996;DHT22;23808;50.634;6.948;2022-07-29T12:18:14;32.40;56.50
37996;DHT22;23808;50.634;6.948;2022-07-29T12:22:27;32.40;56.20
37996;DHT22;23808;50.634;6.948;2022-07-29T12:26:28;32.60;55.90
37996;DHT22;23808;50.634;6.948;2022-07-29T12:30:37;32.40;56.00
37996;DHT22;23808;50.634;6.948;2022-07-29T12:34:39;32.50;56.10
37996;DHT22;23808;50.634;6.948;2022-07-29T12:38:40;32.80;55.60
37996;DHT22;23808;50.634;6.948;2022-07-29T12:42:41;32.80;55.50
37996;DHT22;23808;50.634;6.948;2022-07-29T12:46:42;32.50;55.60
37996;DHT22;23808;50.634;6.948;2022-07-29T12:50:57;32.40;55.60
37996;DHT22;23808;50.634;6.948;2022-07-29T12:54:58;32.30;55.70
37996;DHT22;23808;50.634;6.948;2022-07-29T12:58:59;32.20;56.20
37996;DHT22;23808;50.634;6.948;2022-07-29T13:03:00;32.10;56.50
37996;DHT22;23808;50.634;6.948;2022-07-29T13:07:05;31.60;56.60
37996;DHT22;23808;50.634;6.948;2022-07-29T13:11:07;31.70;57.10
37996;DHT22;23808;50.634;6.948;2022-07-29T13:15:15;32.30;56.40
37996;DHT22;23808;50.634;6.948;2022-07-29T13:19:16;32.90;56.00
37996;DHT22;23808;50.634;6.948;2022-07-29T13:23:17;33.10;55.40
37996;DHT22;23808;50.634;6.948;2022-07-29T13:27:20;33.20;55.20
37996;DHT22;23808;50.634;6.948;2022-07-29T13:31:20;33.30;54.90
37996;DHT22;23808;50.634;6.948;2022-07-29T13:35:22;33.00;54.60
37996;DHT22;23808;50.634;6.948;2022-07-29T13:39:22;32.80;54.60
37996;DHT22;23808;50.634;6.948;2022-07-29T13:43:23;32.90;54.80
37996;DHT22;23808;50.634;6.948;2022-07-29T13:47:24;33.00;55.00
37996;DHT22;23808;50.634;6.948;2022-07-29T13:51:24;33.30;54.60
37996;DHT22;23808;50.634;6.948;2022-07-29T13:55:25;33.60;53.80
37996;DHT22;23808;50.634;6.948;2022-07-29T13:59:26;33.90;53.40
37996;DHT22;23808;50.634;6.948;2022-07-29T14:03:26;33.80;53.10
37996;DHT22;23808;50.634;6.948;2022-07-29T14:07:27;33.80;53.50
37996;DHT22;23808;50.634;6.948;2022-07-29T14:11:27;33.80;52.80
37996;DHT22;23808;50.634;6.948;2022-07-29T14:15:28;33.60;52.70
37996;DHT22;23808;50.634;6.948;2022-07-29T14:19:28;33.50;52.90
37996;DHT22;23808;50.634;6.948;2022-07-29T14:23:29;33.60;52.90
37996;DHT22;23808;50.634;6.948;2022-07-29T14:27:30;33.70;52.80
37996;DHT22;23808;50.634;6.948;2022-07-29T14:31:30;33.80;53.00
37996;DHT22;23808;50.634;6.948;2022-07-29T14:35:31;33.50;52.30
37996;DHT22;23808;50.634;6.948;2022-07-29T14:39:32;33.10;52.40
37996;DHT22;23808;50.634;6.948;2022-07-29T14:43:33;32.50;53.20
37996;DHT22;23808;50.634;6.948;2022-07-29T14:47:35;32.00;53.80
37996;DHT22;23808;50.634;6.948;2022-07-29T14:51:36;31.50;53.80
37996;DHT22;23808;50.634;6.948;2022-07-29T14:55:36;31.30;55.00
37996;DHT22;23808;50.634;6.948;2022-07-29T14:59:37;31.50;54.70
37996;DHT22;23808;50.634;6.948;2022-07-29T15:03:37;31.50;54.90
37996;DHT22;23808;50.634;6.948;2022-07-29T15:07:38;31.40;55.40
37996;DHT22;23808;50.634;6.948;2022-07-29T15:11:38;31.20;55.90
37996;DHT22;23808;50.634;6.948;2022-07-29T15:15:39;31.20;56.60
37996;DHT22;23808;50.634;6.948;2022-07-29T15:19:41;31.10;56.60
37996;DHT22;23808;50.634;6.948;2022-07-29T15:23:42;30.90;56.50
37996;DHT22;23808;50.634;6.948;2022-07-29T15:27:42;30.50;57.20
37996;DHT22;23808;50.634;6.948;2022-07-29T15:31:43;30.10;57.60
37996;DHT22;23808;50.634;6.948;2022-07-29T15:35:43;29.80;58.40
37996;DHT22;23808;50.634;6.948;2022-07-29T15:39:44;29.40;58.20
37996;DHT22;23808;50.634;6.948;2022-07-29T15:43:45;29.00;58.80
37996;DHT22;23808;50.634;6.948;2022-07-29T15:47:47;28.90;58.80
37996;DHT22;23808;50.634;6.948;2022-07-29T15:51:48;29.40;58.60
37996;DHT22;23808;50.634;6.948;2022-07-29T15:55:49;30.00;57.70
37996;DHT22;23808;50.634;6.948;2022-07-29T15:59:49;30.50;56.80
37996;DHT22;23808;50.634;6.948;2022-07-29T16:03:51;30.90;56.40
37996;DHT22;23808;50.634;6.948;2022-07-29T16:07:52;31.20;56.20
37996;DHT22;23808;50.634;6.948;2022-07-29T16:11:52;31.00;56.20
37996;DHT22;23808;50.634;6.948;2022-07-29T16:15:53;30.90;56.20
37996;DHT22;23808;50.634;6.948;2022-07-29T16:19:54;30.90;56.50
37996;DHT22;23808;50.634;6.948;2022-07-29T16:23:54;30.60;56.40
37996;DHT22;23808;50.634;6.948;2022-07-29T16:27:55;30.00;56.80
37996;DHT22;23808;50.634;6.948;2022-07-29T16:31:55;29.50;57.00
37996;DHT22;23808;50.634;6.948;2022-07-29T16:35:56;29.10;57.50
37996;DHT22;23808;50.634;6.948;2022-07-29T16:39:57;28.80;57.80
37996;DHT22;23808;50.634;6.948;2022-07-29T16:43:57;28.70;57.80
37996;DHT22;23808;50.634;6.948;2022-07-29T16:47:58;28.50;58.30
37996;DHT22;23808;50.634;6.948;2022-07-29T16:51:59;28.40;58.40
37996;DHT22;23808;50.634;6.948;2022-07-29T16:56:00;28.50;58.00
37996;DHT22;23808;50.634;6.948;2022-07-29T17:00:01;28.80;57.70
37996;DHT22;23808;50.634;6.948;2022-07-29T17:04:02;29.20;57.00
37996;DHT22;23808;50.634;6.948;2022-07-29T17:08:06;29.40;56.60
37996;DHT22;23808;50.634;6.948;2022-07-29T17:12:07;29.70;56.10
37996;DHT22;23808;50.634;6.948;2022-07-29T17:16:08;29.90;55.30
37996;DHT22;23808;50.634;6.948;2022-07-29T17:20:09;30.00;55.10
37996;DHT22;23808;50.634;6.948;2022-07-29T17:24:10;30.20;55.00
37996;DHT22;23808;50.634;6.948;2022-07-29T17:28:11;30.30;53.70
37996;DHT22;23808;50.634;6.948;2022-07-29T17:32:12;30.10;54.50
37996;DHT22;23808;50.634;6.948;2022-07-29T17:36:12;30.00;54.30
37996;DHT22;23808;50.634;6.948;2022-07-29T17:40:28;29.90;54.90
37996;DHT22;23808;50.634;6.948;2022-07-29T17:44:29;29.80;55.10
37996;DHT22;23808;50.634;6.948;2022-07-29T17:48:30;29.80;55.50
37996;DHT22;23808;50.634;6.948;2022-07-29T17:52:31;29.50;55.60
37996;DHT22;23808;50.634;6.948;2022-07-29T17:56:32;29.30;56.40
37996;DHT22;23808;50.634;6.948;2022-07-29T18:00:33;29.00;56.50
37996;DHT22;23808;50.634;6.948;2022-07-29T18:04:34;28.80;57.00
37996;DHT22;23808;50.634;6.948;2022-07-29T18:08:35;28.50;57.70
37996;DHT22;23808;50.634;6.948;2022-07-29T18:12:36;28.10;58.30
37996;DHT22;23808;50.634;6.948;2022-07-29T18:16:37;27.80;59.10
37996;DHT22;23808;50.634;6.948;2022-07-29T18:20:37;27.40;59.80
37996;DHT22;23808;50.634;6.948;2022-07-29T18:24:38;27.10;60.40
37996;DHT22;23808;50.634;6.948;2022-07-29T18:28:39;26.80;60.90
37996;DHT22;23808;50.634;6.948;2022-07-29T18:32:40;26.70;61.30
37996;DHT22;23808;50.634;6.948;2022-07-29T18:36:41;26.60;61.50
37996;DHT22;23808;50.634;6.948;2022-07-29T18:40:41;26.50;61.80
37996;DHT22;23808;50.634;6.948;2022-07-29T18:44:42;26.30;62.40
37996;DHT22;23808;50.634;6.948;2022-07-29T18:48:42;26.10;63.00
37996;DHT22;23808;50.634;6.948;2022-07-29T18:52:43;26.00;63.90
37996;DHT22;23808;50.634;6.948;2022-07-29T18:56:46;25.80;64.20
